createdAt,value
2023-01-04T00:00:45.204Z,2.70
2023-01-04T00:03:34.421Z,1.40
2023-01-04T00:06:24.453Z,3.60
2023-01-04T00:09:10.222Z,3.35
2023-01-04T00:11:56.373Z,2.92
2023-01-04T00:14:42.640Z,1.40
2023-01-04T00:17:28.537Z,3.47
2023-01-04T00:20:14.586Z,1.00
2023-01-04T00:23:00.567Z,1.60
2023-01-04T00:25:46.765Z,1.92
2023-01-04T00:28:32.651Z,1.23
2023-01-04T00:31:18.775Z,1.70
2023-01-04T00:34:06.130Z,0.75
2023-01-04T00:36:51.697Z,2.05
2023-01-04T00:39:37.894Z,4.32
2023-01-04T00:42:23.996Z,1.80
2023-01-04T00:45:10.674Z,1.77
2023-01-04T00:47:57.104Z,1.83
2023-01-04T00:50:45.327Z,1.70
2023-01-04T00:53:31.373Z,2.13
2023-01-04T00:56:17.547Z,2.40
2023-01-04T00:59:04.778Z,0.85
2023-01-04T01:01:53.477Z,1.67
2023-01-04T01:04:39.978Z,2.72
2023-01-04T01:07:28.075Z,0.73
2023-01-04T01:10:13.948Z,2.97
2023-01-04T01:12:59.879Z,1.27
2023-01-04T01:15:46.043Z,0.68
2023-01-04T01:18:32.959Z,0.65
2023-01-04T01:21:21.392Z,1.65
2023-01-04T01:24:09.346Z,0.73
2023-01-04T01:26:55.955Z,3.40
2023-01-04T01:29:41.857Z,1.58
2023-01-04T01:32:27.875Z,1.00
2023-01-04T01:35:14.077Z,1.85
2023-01-04T01:38:00.042Z,1.75
2023-01-04T01:40:46.324Z,1.20
2023-01-04T01:43:58.911Z,1.00
2023-01-04T01:46:52.567Z,1.33
2023-01-04T01:52:32.088Z,2.15
2023-01-04T01:55:18.467Z,2.03
2023-01-04T01:58:06.661Z,2.80
2023-01-04T02:00:52.564Z,1.05
2023-01-04T02:03:43.420Z,1.67
2023-01-04T02:06:37.354Z,2.00
2023-01-04T02:09:24.002Z,1.95
2023-01-04T02:12:13.975Z,2.13
2023-01-04T02:15:00.131Z,2.58
2023-01-04T02:18:04.911Z,1.00
2023-01-04T02:20:56.885Z,1.70
2023-01-04T02:24:24.886Z,4.15
2023-01-04T02:27:34.168Z,2.55
2023-01-04T02:30:44.901Z,3.03
2023-01-04T02:34:00.050Z,1.30
2023-01-04T02:37:18.916Z,2.05
2023-01-04T02:40:31.668Z,1.88
2023-01-04T02:44:03.654Z,1.95
2023-01-04T02:47:11.929Z,2.70
2023-01-04T02:50:16.406Z,4.43
2023-01-04T02:53:10.263Z,2.17
2023-01-04T02:56:14.857Z,0.85
2023-01-04T02:59:04.061Z,2.58
2023-01-04T03:02:17.737Z,4.50
2023-01-04T03:05:58.635Z,1.67
2023-01-04T03:09:07.782Z,1.58
2023-01-04T03:12:21.214Z,1.83
2023-01-04T03:15:25.354Z,2.63
2023-01-04T03:18:22.879Z,1.92
2023-01-04T03:21:11.999Z,2.08
2023-01-04T03:24:32.679Z,2.38
2023-01-04T03:27:38.950Z,2.13
2023-01-04T03:30:48.899Z,3.30
2023-01-04T03:33:56.860Z,2.47
2023-01-04T03:36:52.888Z,0.52
2023-01-04T03:40:06.529Z,2.08
2023-01-04T03:46:45.055Z,1.38
2023-01-04T03:50:00.807Z,0.98
2023-01-04T03:52:49.807Z,0.98
2023-01-04T03:55:39.057Z,1.30
2023-01-04T03:58:26.015Z,1.70
2023-01-04T04:01:13.720Z,1.80
2023-01-04T04:04:18.173Z,2.22
2023-01-04T04:07:23.384Z,2.63
2023-01-04T04:10:09.360Z,1.55
2023-01-04T04:12:55.527Z,2.55
2023-01-04T04:15:41.558Z,1.73
2023-01-04T04:18:27.652Z,2.42
2023-01-04T04:21:16.768Z,1.55
2023-01-04T04:24:03.072Z,1.85
2023-01-04T04:26:48.821Z,2.38
2023-01-04T04:29:35.542Z,1.10
2023-01-04T04:32:21.981Z,1.80
2023-01-04T04:35:08.727Z,1.63
2023-01-04T04:37:55.217Z,2.03
2023-01-04T04:41:00.285Z,3.65
2023-01-04T04:43:47.102Z,3.03
2023-01-04T04:46:33.925Z,3.47
2023-01-04T04:49:21.065Z,1.15
2023-01-04T04:52:07.930Z,3.50
2023-01-04T04:54:54.818Z,2.00
2023-01-04T04:57:41.853Z,3.42
2023-01-04T05:00:28.992Z,1.92
2023-01-04T05:03:15.847Z,1.42
2023-01-04T05:06:03.247Z,2.90
2023-01-04T05:08:50.525Z,1.35
2023-01-04T05:11:56.143Z,4.63
2023-01-04T05:14:42.593Z,2.15
2023-01-04T05:17:29.477Z,3.28
2023-01-04T05:20:16.086Z,4.18
2023-01-04T05:23:02.101Z,4.75
2023-01-04T05:26:08.620Z,0.73
2023-01-04T05:28:55.047Z,2.42
2023-01-04T05:31:41.456Z,4.35
2023-01-04T05:34:27.575Z,1.58
2023-01-04T05:37:13.840Z,2.72
2023-01-04T05:40:00.232Z,2.58
2023-01-04T05:42:46.343Z,1.30
2023-01-04T05:45:32.539Z,1.38
2023-01-04T05:48:19.049Z,2.53
2023-01-04T05:51:05.285Z,1.30
2023-01-04T05:53:51.589Z,3.30
2023-01-04T05:56:37.943Z,0.95
2023-01-04T05:59:24.463Z,0.98
2023-01-04T06:02:21.040Z,3.00
2023-01-04T06:05:07.853Z,2.97
2023-01-04T06:07:54.548Z,4.68
2023-01-04T06:10:40.960Z,3.58
2023-01-04T06:13:27.226Z,2.28
2023-01-04T06:16:13.516Z,3.78
2023-01-04T06:18:59.797Z,3.55
2023-01-04T06:21:47.051Z,4.68
2023-01-04T06:24:37.157Z,4.30
2023-01-04T06:27:24.061Z,3.15
2023-01-04T06:30:10.552Z,2.95
2023-01-04T06:32:56.507Z,2.58
2023-01-04T06:35:42.532Z,4.30
2023-01-04T06:38:28.944Z,3.15
2023-01-04T06:41:15.325Z,4.00
2023-01-04T06:44:01.983Z,2.42
2023-01-04T06:46:48.657Z,3.67
2023-01-04T06:49:34.751Z,4.63
2023-01-04T06:52:20.918Z,4.10
2023-01-04T06:55:09.785Z,5.05
2023-01-04T06:57:59.591Z,4.65
2023-01-04T07:00:46.570Z,5.40
2023-01-04T07:03:33.522Z,3.15
2023-01-04T07:06:27.498Z,3.47
2023-01-04T07:09:13.679Z,4.60
2023-01-04T07:12:00.263Z,4.80
2023-01-04T07:14:46.274Z,7.55
2023-01-04T07:17:32.792Z,2.65
2023-01-04T07:20:21.638Z,2.45
2023-01-04T07:23:08.653Z,3.30
2023-01-04T07:25:54.838Z,3.92
2023-01-04T07:29:00.041Z,2.13
2023-01-04T07:31:48.531Z,3.50
2023-01-04T07:34:34.845Z,5.88
2023-01-04T07:37:20.937Z,4.85
2023-01-04T07:40:07.903Z,4.95
2023-01-04T07:42:58.036Z,3.72
2023-01-04T07:45:46.523Z,9.00
2023-01-04T07:48:32.879Z,7.93
2023-01-04T07:51:21.069Z,9.40
2023-01-04T07:54:06.948Z,8.05
2023-01-04T07:56:53.041Z,5.40
2023-01-04T08:14:20.609Z,5.32
2023-01-04T08:36:14.563Z,5.70
2023-01-04T08:39:06.494Z,7.03
2023-01-04T08:41:58.849Z,5.85
2023-01-04T08:44:47.449Z,6.97
2023-01-04T08:47:38.720Z,7.07
2023-01-04T08:50:29.837Z,7.00
2023-01-04T08:53:16.802Z,5.60
2023-01-04T08:56:04.147Z,4.38
2023-01-04T08:58:50.818Z,5.53
2023-01-04T09:01:37.767Z,4.32
2023-01-04T09:04:24.465Z,4.30
2023-01-04T09:07:10.984Z,5.07
2023-01-04T09:09:58.577Z,5.18
2023-01-04T09:12:46.888Z,9.13
2023-01-04T09:15:34.976Z,3.42
2023-01-04T09:18:31.116Z,6.82
2023-01-04T09:21:21.437Z,5.93
2023-01-04T09:24:07.356Z,3.15
2023-01-04T09:26:53.870Z,5.72
2023-01-04T09:29:39.808Z,3.25
2023-01-04T09:35:21.423Z,3.85
2023-01-04T11:42:32.513Z,3.85
2023-01-04T11:45:27.025Z,2.00
2023-01-04T11:48:15.649Z,3.78
2023-01-04T11:51:04.074Z,2.42
2023-01-04T11:53:59.469Z,2.70
2023-01-04T11:57:11.683Z,3.20
2023-01-04T12:00:13.760Z,2.80
2023-01-04T12:03:18.744Z,2.63
2023-01-04T12:06:41.740Z,4.05
2023-01-04T12:09:30.787Z,3.33
2023-01-04T12:12:17.053Z,6.40
2023-01-04T12:15:16.670Z,4.05
2023-01-04T12:18:33.890Z,4.85
2023-01-04T12:21:24.223Z,4.95
2023-01-04T12:24:10.333Z,5.30
2023-01-04T12:26:57.064Z,5.32
2023-01-04T12:29:52.604Z,3.88
2023-01-04T12:32:43.505Z,3.15
2023-01-04T12:35:59.036Z,3.35
2023-01-04T12:39:29.983Z,6.78
2023-01-04T12:42:25.293Z,4.97
2023-01-04T12:45:21.425Z,3.72
2023-01-04T12:48:54.176Z,3.30
2023-01-04T12:51:51.965Z,4.45
2023-01-04T12:54:55.070Z,3.47
2023-01-04T12:57:41.125Z,3.47
2023-01-04T13:00:52.679Z,4.85
2023-01-04T13:03:48.997Z,4.88
2023-01-04T13:06:45.080Z,4.45
2023-01-04T13:09:34.971Z,4.88
2023-01-04T13:12:34.175Z,6.03
2023-01-04T13:15:28.033Z,5.03
2023-01-04T13:19:11.233Z,5.53
2023-01-04T13:21:58.345Z,5.75
2023-01-04T13:24:45.540Z,6.57
2023-01-04T13:27:31.427Z,9.02
2023-01-04T13:30:35.885Z,10.27
2023-01-04T13:33:27.210Z,9.93
2023-01-04T13:36:14.291Z,11.02
2023-01-04T13:39:00.991Z,11.98
2023-01-04T13:41:47.381Z,10.40
2023-01-04T13:45:18.461Z,12.45
2023-01-04T13:48:00.329Z,13.65
2023-01-04T13:50:47.525Z,15.05
2023-01-04T13:53:34.414Z,13.77
2023-01-04T13:56:25.569Z,12.95
2023-01-04T13:59:12.139Z,13.43
2023-01-04T14:01:58.749Z,10.80
2023-01-04T14:04:46.064Z,9.60
2023-01-04T14:07:32.659Z,10.52
2023-01-04T14:10:19.881Z,14.23
2023-01-04T14:13:06.259Z,11.77
2023-01-04T14:16:06.023Z,15.52
2023-01-04T14:18:52.497Z,13.32
2023-01-04T14:21:38.772Z,14.13
2023-01-04T14:30:38.101Z,14.73
2023-01-04T14:33:37.000Z,16.08
2023-01-04T14:36:31.335Z,15.90
2023-01-04T14:39:24.917Z,15.63
2023-01-04T14:42:27.550Z,17.27
2023-01-04T14:45:14.395Z,15.93
2023-01-04T14:48:00.616Z,14.50
2023-01-04T14:50:46.639Z,18.35
2023-01-04T14:53:33.219Z,16.30
2023-01-04T14:56:20.627Z,14.32
2023-01-04T14:59:07.390Z,12.60
2023-01-04T15:01:55.001Z,10.70
2023-01-04T15:04:41.841Z,12.25
2023-01-04T15:07:40.696Z,10.68
2023-01-04T15:10:28.564Z,12.40
2023-01-04T15:13:15.678Z,13.18
2023-01-04T15:16:02.093Z,12.60
2023-01-04T15:18:48.334Z,14.80
2023-01-04T15:21:40.541Z,15.57
2023-01-04T15:24:27.673Z,10.63
2023-01-04T15:27:13.918Z,11.88
2023-01-04T15:30:01.013Z,10.82
2023-01-04T15:32:47.731Z,15.40
2023-01-04T15:35:34.029Z,13.73
2023-01-04T15:38:20.153Z,13.48
2023-01-04T15:41:07.625Z,14.52
2023-01-04T15:43:54.039Z,10.93
2023-01-04T15:46:40.603Z,15.25
2023-01-04T15:49:27.319Z,11.77
2023-01-04T15:52:14.014Z,15.13
2023-01-04T15:55:00.411Z,9.85
2023-01-04T15:57:46.585Z,10.05
2023-01-04T16:00:33.044Z,12.13
2023-01-04T16:03:19.999Z,11.15
2023-01-04T16:06:11.509Z,12.50
2023-01-04T16:08:59.015Z,13.18
2023-01-04T16:12:03.974Z,16.42
2023-01-04T16:14:50.382Z,15.68
2023-01-04T16:17:36.688Z,12.43
2023-01-04T16:20:48.767Z,12.40
2023-01-04T16:23:35.777Z,14.77
2023-01-04T16:26:23.049Z,13.13
2023-01-04T16:29:12.984Z,11.25
2023-01-04T16:31:59.269Z,12.52
2023-01-04T16:34:45.832Z,13.00
2023-01-04T16:37:32.299Z,13.63
2023-01-04T16:40:18.410Z,14.13
2023-01-04T16:43:06.921Z,17.05
2023-01-04T16:46:13.254Z,16.92
2023-01-04T16:49:04.164Z,18.48
2023-01-04T16:51:50.742Z,17.15
2023-01-04T16:54:37.615Z,17.02
2023-01-04T16:57:24.304Z,20.42
2023-01-04T17:00:10.869Z,19.45
2023-01-04T17:02:57.517Z,20.02
2023-01-04T17:05:43.652Z,20.42
2023-01-04T17:08:30.049Z,18.17
2023-01-04T17:15:07.835Z,18.10
2023-01-04T17:17:57.069Z,13.05
2023-01-04T17:20:42.895Z,14.50
2023-01-04T17:23:31.119Z,15.48
2023-01-04T17:26:18.907Z,13.77
2023-01-04T17:29:05.320Z,11.95
2023-01-04T17:31:54.433Z,10.75
2023-01-04T17:34:40.896Z,13.07
2023-01-04T17:37:27.497Z,12.95
2023-01-04T17:40:17.643Z,16.90
2023-01-04T17:43:09.075Z,13.68
2023-01-04T17:45:55.203Z,11.90
2023-01-04T17:48:41.897Z,13.52
2023-01-04T17:51:29.050Z,16.45
2023-01-04T17:54:15.618Z,15.57
2023-01-04T17:57:01.361Z,12.02
2023-01-04T17:59:47.482Z,14.68
2023-01-04T18:02:34.097Z,13.15
2023-01-04T18:05:20.280Z,15.65
2023-01-04T18:08:09.120Z,11.05
2023-01-04T18:11:07.364Z,12.75
2023-01-04T18:13:54.463Z,12.35
2023-01-04T18:16:57.136Z,11.77
2023-01-04T18:19:46.454Z,11.27
2023-01-04T18:22:35.157Z,10.95
2023-01-04T18:25:21.037Z,12.57
2023-01-04T18:28:06.951Z,10.02
2023-01-04T18:30:53.010Z,8.55
2023-01-04T18:33:39.591Z,10.63
2023-01-04T18:36:29.905Z,9.05
2023-01-04T18:39:18.137Z,11.07
2023-01-04T18:42:04.498Z,9.52
2023-01-04T18:44:50.547Z,12.07
2023-01-04T18:47:37.087Z,11.38
2023-01-04T18:50:23.619Z,8.98
2023-01-04T18:53:09.376Z,9.18
2023-01-04T18:55:55.553Z,10.32
2023-01-04T18:58:41.579Z,9.82
2023-01-04T19:01:29.830Z,11.45
2023-01-04T19:04:17.609Z,10.48
2023-01-04T19:07:03.536Z,10.18
2023-01-04T19:09:50.039Z,9.57
2023-01-04T19:12:39.429Z,11.45
2023-01-04T19:15:26.211Z,8.63
2023-01-04T19:18:12.348Z,10.23
2023-01-04T19:21:01.773Z,9.05
2023-01-04T19:23:48.170Z,12.35
2023-01-04T19:26:34.858Z,11.35
2023-01-04T19:29:21.161Z,11.75
2023-01-04T19:32:07.337Z,12.40
2023-01-04T19:34:53.678Z,11.63
2023-01-04T19:37:39.605Z,11.02
2023-01-04T19:40:26.283Z,12.48
2023-01-04T19:43:12.133Z,13.68
2023-01-04T19:45:58.347Z,14.70
2023-01-04T19:48:44.779Z,11.55
2023-01-04T19:51:31.051Z,11.68
2023-01-04T19:54:24.764Z,10.77
2023-01-04T19:57:11.378Z,11.15
2023-01-04T19:59:57.499Z,9.73
2023-01-04T20:02:44.008Z,13.77
2023-01-04T20:05:29.992Z,11.55
2023-01-04T20:08:16.640Z,10.32
2023-01-04T20:11:03.708Z,10.35
2023-01-04T20:13:58.372Z,14.50
2023-01-04T20:16:44.160Z,11.68
2023-01-04T20:19:30.621Z,14.45
2023-01-04T20:22:16.646Z,10.52
2023-01-04T20:25:03.280Z,11.43
2023-01-04T20:27:49.356Z,10.95
2023-01-04T20:30:37.491Z,13.57
2023-01-04T20:33:23.910Z,13.30
2023-01-04T20:36:14.131Z,12.18
2023-01-04T20:39:00.716Z,11.02
2023-01-04T20:42:06.409Z,11.65
2023-01-04T20:44:52.429Z,12.45
2023-01-04T20:47:38.416Z,11.85
2023-01-04T20:50:32.476Z,9.93
2023-01-04T20:53:19.328Z,12.20
2023-01-04T20:56:16.025Z,12.10
2023-01-04T20:59:08.307Z,11.73
2023-01-04T21:01:54.654Z,10.10
2023-01-04T21:04:46.932Z,10.25
2023-01-04T21:07:35.285Z,10.90
2023-01-04T21:10:21.441Z,8.45
2023-01-04T21:13:07.526Z,9.80
2023-01-04T21:15:53.840Z,8.30
2023-01-04T21:18:44.735Z,7.20
2023-01-04T21:21:30.778Z,10.13
2023-01-04T21:24:16.818Z,9.27
2023-01-04T21:27:03.108Z,9.52
2023-01-04T21:30:14.621Z,7.68
2023-01-04T21:33:02.124Z,10.63
2023-01-04T21:35:53.628Z,7.32
2023-01-04T21:38:39.474Z,8.63
2023-01-04T21:41:47.840Z,6.72
2023-01-04T21:44:39.164Z,6.95
2023-01-04T21:47:25.307Z,8.38
2023-01-04T21:50:16.711Z,7.40
2023-01-04T21:53:12.323Z,7.03
2023-01-04T21:55:59.437Z,6.47
2023-01-04T21:58:46.060Z,8.52
2023-01-04T22:01:35.113Z,6.20
2023-01-04T22:04:22.128Z,7.00
2023-01-04T22:07:33.228Z,8.45
2023-01-04T22:10:19.532Z,10.18
2023-01-04T22:13:05.528Z,12.02
2023-01-04T22:15:51.926Z,7.35
2023-01-04T22:18:38.314Z,8.77
2023-01-04T22:21:24.546Z,9.65
2023-01-04T22:27:17.440Z,9.18
2023-01-04T22:30:04.853Z,9.00
2023-01-04T22:32:51.057Z,10.00
2023-01-04T22:35:41.839Z,8.02
2023-01-04T22:38:29.575Z,9.05
2023-01-04T22:41:17.341Z,13.45
2023-01-04T22:44:05.443Z,8.85
2023-01-04T22:46:58.225Z,8.70
2023-01-04T22:52:50.911Z,8.57
2023-01-04T22:56:17.117Z,8.85
2023-01-04T22:58:55.235Z,10.82
2023-01-04T23:01:42.087Z,9.48
2023-01-04T23:07:44.113Z,8.75
2023-01-04T23:10:30.088Z,9.88
2023-01-04T23:13:15.955Z,9.38
2023-01-04T23:16:06.697Z,8.45
2023-01-04T23:18:52.922Z,8.85
2023-01-04T23:21:40.511Z,9.02
2023-01-04T23:24:26.826Z,7.15
2023-01-04T23:27:17.344Z,6.90
2023-01-04T23:30:30.515Z,6.22
2023-01-04T23:33:20.226Z,7.10
2023-01-04T23:36:13.130Z,8.13
2023-01-04T23:39:24.082Z,8.85
2023-01-04T23:42:31.660Z,8.73
2023-01-04T23:45:22.457Z,11.07
2023-01-04T23:48:08.192Z,7.90
2023-01-04T23:51:07.372Z,8.20
2023-01-04T23:53:53.631Z,7.45
2023-01-04T23:59:45.037Z,6.53
